Time;durP1;ratioP1;P1;durP2;ratioP2;P2;SDS_P1;SDS_P2;PMS_P1;PMS_P2;Temp;Humidity;BMP_temperature;BMP_pressure;BME280_temperature;BME280_humidity;BME280_pressure;Samples;Min_cycle;Max_cycle;Signal;HPM_P1;HPM_P2
2023/02/23 00:01:25;;;;;;;13.85;8.15;;;;;;;6.41;65.58;99310.44;4867806;29;20025;-94
2023/02/23 00:03:56;;;;;;;14.15;7.97;;;;;;;6.37;65.36;99303.97;4867850;29;20041;-94
2023/02/23 00:06:22;;;;;;;16.73;8.18;;;;;;;6.25;65.29;99300.53;4867754;29;20456;-94
2023/02/23 00:08:51;;;;;;;26.63;10.82;;;;;;;6.36;65.18;99307.66;4868244;29;20104;-94
2023/02/23 00:11:17;;;;;;;24.98;10.60;;;;;;;6.31;66.00;99304.09;4867823;29;20470;-94
2023/02/23 00:13:48;;;;;;;21.23;10.32;;;;;;;6.32;65.85;99303.84;4883755;29;20036;-93
2023/02/23 00:16:19;;;;;;;18.13;10.10;;;;;;;6.34;65.12;99296.41;4868211;29;20212;-94
2023/02/23 00:18:59;;;;;;;17.80;9.80;;;;;;;6.42;65.39;99304.03;4888998;29;20036;-95
2023/02/23 00:21:30;;;;;;;16.08;9.07;;;;;;;6.48;65.29;99288.88;4906403;29;20027;-95
2023/02/23 00:23:59;;;;;;;13.93;8.47;;;;;;;6.66;64.76;99299.34;4906052;29;20031;-94
2023/02/23 00:26:29;;;;;;;16.48;9.32;;;;;;;6.54;64.34;99295.13;4891039;29;20027;-94
2023/02/23 00:28:55;;;;;;;14.90;8.93;;;;;;;6.39;65.00;99280.47;4906535;29;20052;-94
2023/02/23 00:31:27;;;;;;;18.02;9.43;;;;;;;6.37;64.99;99274.53;4889465;29;20028;-93
2023/02/23 00:33:57;;;;;;;18.38;8.88;;;;;;;6.46;65.14;99301.69;4891971;29;20023;-93
2023/02/23 00:36:27;;;;;;;13.57;8.30;;;;;;;6.40;64.88;99308.81;4890353;29;20028;-93
2023/02/23 00:38:57;;;;;;;13.63;7.70;;;;;;;6.35;65.00;99297.22;4889859;29;20028;-94
2023/02/23 00:41:29;;;;;;;15.02;8.00;;;;;;;6.08;65.60;99281.81;4889872;29;20509;-94
2023/02/23 00:44:03;;;;;;;12.45;7.57;;;;;;;6.17;64.89;99311.63;4905599;29;20057;-94
2023/02/23 00:46:29;;;;;;;14.93;7.63;;;;;;;6.11;65.67;99307.25;4905521;29;20123;-93
2023/02/23 00:48:57;;;;;;;15.20;8.23;;;;;;;6.06;65.88;99299.97;4889935;29;20095;-94
2023/02/23 00:51:25;;;;;;;17.67;8.40;;;;;;;5.94;66.73;99296.50;4905992;29;20446;-93
2023/02/23 00:53:53;;;;;;;17.98;8.82;;;;;;;5.87;66.35;99307.31;4889818;29;20031;-93
2023/02/23 00:56:22;;;;;;;18.45;7.78;;;;;;;5.86;66.47;99301.16;4905587;29;20528;-93
2023/02/23 00:58:47;;;;;;;17.95;9.55;;;;;;;5.87;66.16;99315.31;4890808;29;20044;-94
2023/02/23 01:01:16;;;;;;;19.00;10.65;;;;;;;5.70;67.25;99295.78;4888671;29;20059;-94
2023/02/23 01:03:45;;;;;;;18.38;9.88;;;;;;;5.74;66.59;99297.72;4890425;29;20115;-93
2023/02/23 01:06:13;;;;;;;21.55;10.48;;;;;;;5.69;66.91;99297.66;4890143;29;20031;-94
2023/02/23 01:08:41;;;;;;;15.35;9.25;;;;;;;5.70;67.25;99299.25;4889580;29;20030;-93
2023/02/23 01:11:14;;;;;;;18.15;9.98;;;;;;;5.73;66.88;99304.13;4905043;29;20058;-94
2023/02/23 01:13:40;;;;;;;22.17;10.32;;;;;;;5.67;67.60;99295.19;4905433;29;20046;-94
2023/02/23 01:16:10;;;;;;;23.40;10.35;;;;;;;5.53;67.24;99277.84;4889133;29;20091;-93
2023/02/23 01:18:36;;;;;;;22.48;10.02;;;;;;;5.62;67.58;99294.28;4889486;29;20051;-93
2023/02/23 01:21:04;;;;;;;16.30;9.68;;;;;;;5.50;66.98;99272.97;4888792;29;20054;-95
2023/02/23 01:23:33;;;;;;;17.70;10.55;;;;;;;5.67;67.54;99299.75;4904783;29;20410;-94
2023/02/23 01:25:58;;;;;;;18.20;10.20;;;;;;;5.52;67.37;99286.91;4889809;29;20395;-93
2023/02/23 01:28:24;;;;;;;16.58;9.65;;;;;;;5.48;67.58;99291.09;4888584;29;20035;-93
2023/02/23 01:30:50;;;;;;;20.10;9.63;;;;;;;5.49;67.14;99286.56;4889161;29;20023;-94
2023/02/23 01:33:15;;;;;;;15.00;9.13;;;;;;;5.43;66.90;99275.75;4889354;29;20115;-93
2023/02/23 01:35:46;;;;;;;19.35;9.18;;;;;;;5.46;67.72;99293.19;4888767;29;20024;-93
2023/02/23 01:38:12;;;;;;;17.15;9.82;;;;;;;5.39;67.86;99295.97;4889328;29;20038;-94
2023/02/23 01:40:41;;;;;;;14.13;9.10;;;;;;;5.37;67.09;99295.41;4889405;29;20478;-94
2023/02/23 01:43:24;;;;;;;15.40;8.77;;;;;;;5.22;68.03;99292.44;4888754;29;20024;-93
2023/02/23 01:45:54;;;;;;;15.60;9.38;;;;;;;5.26;67.48;99288.25;4905224;29;20028;-95
2023/02/23 01:48:30;;;;;;;15.98;9.20;;;;;;;5.27;67.63;99300.53;4904948;29;20035;-94
2023/02/23 01:51:12;;;;;;;21.98;9.13;;;;;;;5.24;67.25;99295.66;4890075;29;20036;-94
2023/02/23 01:53:39;;;;;;;;;;;;;;;5.18;67.23;99305.44;4905665;29;20032;-93
2023/02/23 01:56:10;;;;;;;19.98;8.57;;;;;;;4.94;67.88;99280.66;4903805;29;20404;-93
2023/02/23 01:58:42;;;;;;;12.60;8.02;;;;;;;4.94;68.04;99285.16;4889097;29;20031;-94
2023/02/23 02:01:08;;;;;;;15.45;7.82;;;;;;;5.00;68.68;99297.56;4905032;29;20064;-94
2023/02/23 02:03:49;;;;;;;17.90;8.70;;;;;;;4.96;68.41;99301.72;4904298;29;20522;-93
2023/02/23 02:06:16;;;;;;;14.85;8.13;;;;;;;4.99;68.54;99309.28;4904457;29;20143;-93
2023/02/23 02:08:49;;;;;;;16.25;8.38;;;;;;;4.96;69.34;99304.41;4888412;29;20020;-94
2023/02/23 02:11:40;;;;;;;13.75;8.27;;;;;;;4.95;68.77;99282.25;4878416;29;20084;-95
2023/02/23 02:14:33;;;;;;;14.82;7.93;;;;;;;5.20;67.92;99298.00;4880425;29;20042;-94
2023/02/23 02:17:36;;;;;;;13.45;7.82;;;;;;;5.12;68.06;99300.22;4835936;29;20057;-93
2023/02/23 02:20:30;;;;;;;16.48;8.48;;;;;;;5.04;68.67;99312.06;4821324;29;20025;-94
2023/02/23 02:23:08;;;;;;;16.23;6.90;;;;;;;5.05;68.52;99314.50;4836416;29;20029;-94
2023/02/23 02:25:48;;;;;;;15.32;8.43;;;;;;;4.94;68.58;99310.00;4848992;29;20469;-92
2023/02/23 02:28:34;;;;;;;15.88;7.68;;;;;;;5.00;68.33;99305.56;4833093;29;20041;-93
2023/02/23 02:31:29;;;;;;;11.70;8.20;;;;;;;4.91;68.33;99289.09;4832457;29;20029;-92
2023/02/23 02:34:18;;;;;;;16.55;7.97;;;;;;;4.88;68.08;99300.25;4834918;29;20029;-93
2023/02/23 02:37:05;;;;;;;16.15;8.10;;;;;;;4.78;68.82;99311.50;4835180;29;20049;-94
2023/02/23 02:39:45;;;;;;;18.30;7.47;;;;;;;4.79;68.67;99309.63;4848023;29;20041;-94
2023/02/23 02:42:25;;;;;;;16.15;9.48;;;;;;;4.71;68.76;99309.97;4848433;29;20034;-94
2023/02/23 02:44:57;;;;;;;16.60;8.85;;;;;;;4.69;68.86;99309.41;4832324;29;20493;-95
2023/02/23 02:47:42;;;;;;;;;;;;;;;4.61;69.31;99314.03;4847920;29;20064;-94
2023/02/23 02:50:15;;;;;;;15.57;8.60;;;;;;;4.67;68.49;99314.97;4904283;29;19911;-93
2023/02/23 02:52:46;;;;;;;14.52;8.32;;;;;;;4.69;68.83;99299.56;4874444;29;20031;-94
2023/02/23 02:55:24;;;;;;;13.85;7.82;;;;;;;4.91;68.41;99315.78;4873488;29;20028;-94
2023/02/23 04:20:34;;;;;;;19.02;8.50;;;;;;;4.12;69.12;99360.53;4846524;29;20060;-94
2023/02/23 04:23:04;;;;;;;15.18;8.80;;;;;;;4.09;68.78;99364.47;4823635;29;20045;-94
2023/02/23 04:25:31;;;;;;;21.05;9.95;;;;;;;4.03;69.30;99365.38;4811019;29;20046;-94
2023/02/23 04:28:05;;;;;;;21.30;10.13;;;;;;;3.87;69.92;99348.16;4815385;29;20043;-94
2023/02/23 04:30:57;;;;;;;17.42;9.40;;;;;;;3.72;69.67;99343.22;4831196;29;20030;-94
2023/02/23 04:33:50;;;;;;;;;;;;;;;4.02;69.65;99363.72;4846265;29;20033;-94
2023/02/23 04:36:50;;;;;;;19.63;10.38;;;;;;;3.87;69.91;99356.13;4831530;29;19920;-95
2023/02/23 04:39:54;;;;;;;21.00;10.82;;;;;;;3.74;70.17;99343.00;4851329;29;20060;-95
2023/02/23 04:46:17;;;;;;;22.45;11.43;;;;;;;3.96;69.70;99359.28;4834952;29;20103;-94
2023/02/23 04:48:44;;;;;;;23.63;11.50;;;;;;;4.08;69.68;99375.34;4809570;29;20042;-94
2023/02/23 04:51:14;;;;;;;22.00;11.35;;;;;;;4.10;69.59;99371.41;4793916;29;20038;-93
2023/02/23 04:53:42;;;;;;;22.67;11.45;;;;;;;4.07;69.37;99373.69;4814216;29;20156;-93
2023/02/23 04:56:08;;;;;;;33.88;10.15;;;;;;;3.94;69.33;99367.50;4792161;29;20414;-93
2023/02/23 04:58:36;;;;;;;18.70;9.63;;;;;;;3.91;68.81;99381.28;4791338;29;20231;-94
2023/02/23 05:01:11;;;;;;;18.70;10.43;;;;;;;3.66;69.39;99353.97;4792330;29;20042;-95
2023/02/23 05:03:38;;;;;;;14.77;9.50;;;;;;;3.64;69.90;99375.47;4806075;29;20039;-94
2023/02/23 05:06:04;;;;;;;21.42;10.30;;;;;;;3.76;69.30;99375.53;4806572;29;20054;-95
2023/02/23 05:08:30;;;;;;;21.95;11.40;;;;;;;3.72;69.50;99385.00;4791616;29;20517;-94
2023/02/23 05:10:58;;;;;;;21.38;10.40;;;;;;;3.58;70.62;99376.34;4830986;29;20539;-94
2023/02/23 05:13:24;;;;;;;16.90;9.82;;;;;;;3.53;71.18;99384.19;4849376;29;20388;-94
2023/02/23 05:15:57;;;;;;;19.83;9.65;;;;;;;3.67;70.69;99398.16;4864232;29;20037;-94
2023/02/23 05:18:29;;;;;;;16.55;9.20;;;;;;;3.73;70.41;99399.94;5086253;23;20484;-94
2023/02/23 05:21:25;;;;;;;20.45;9.75;;;;;;;3.73;70.84;99407.94;4894840;29;20040;-95
2023/02/23 05:23:50;;;;;;;15.45;8.93;;;;;;;3.49;71.26;99385.69;4924266;29;20036;-95
2023/02/23 05:26:17;;;;;;;18.05;8.60;;;;;;;3.39;70.98;99397.66;4887383;29;20553;-94
2023/02/23 05:28:43;;;;;;;15.75;8.93;;;;;;;3.46;71.09;99412.75;4890011;29;20032;-94
2023/02/23 05:31:32;;;;;;;;;;;;;;;;;;;;;
2023/02/23 05:34:01;;;;;;;18.05;8.13;;;;;;;3.51;71.07;99396.91;4887850;29;20119;-95
2023/02/23 05:36:38;;;;;;;20.23;8.60;;;;;;;3.59;70.80;99418.75;4883595;29;20491;-95
2023/02/23 05:39:11;;;;;;;34.10;10.40;;;;;;;3.69;70.65;99430.72;4965039;23;20062;-93
2023/02/23 05:41:41;;;;;;;18.73;8.45;;;;;;;3.71;70.79;99418.00;4970873;28;20216;-94
2023/02/23 05:44:21;;;;;;;16.25;9.50;;;;;;;3.71;70.29;99415.31;4971606;28;20051;-95
2023/02/23 05:47:30;;;;;;;19.05;9.27;;;;;;;3.93;69.67;99429.00;4970186;28;20134;-95
2023/02/23 05:50:16;;;;;;;15.60;9.35;;;;;;;4.20;69.51;99432.16;4979921;28;20022;-94
2023/02/23 05:52:59;;;;;;;16.75;9.52;;;;;;;4.25;69.36;99448.28;4964379;28;20050;-95
2023/02/23 05:55:45;;;;;;;19.40;11.68;;;;;;;4.07;69.85;99433.16;4955538;28;20125;-95
2023/02/23 05:58:11;;;;;;;20.38;10.00;;;;;;;4.26;69.52;99452.56;4967134;28;20030;-93
2023/02/23 06:00:47;;;;;;;23.63;9.18;;;;;;;4.33;68.71;99436.50;4955188;28;20029;-94
2023/02/23 06:03:27;;;;;;;21.02;10.68;;;;;;;4.46;68.25;99436.28;4955925;28;20034;-94
2023/02/23 06:05:57;;;;;;;17.38;9.98;;;;;;;4.56;68.20;99436.56;4954892;28;20093;-95
2023/02/23 06:08:28;;;;;;;17.98;10.30;;;;;;;4.41;68.41;99413.00;4969090;28;20093;-94
2023/02/23 06:10:53;;;;;;;18.33;10.15;;;;;;;4.62;68.05;99458.84;4950445;28;20042;-95
2023/02/23 06:13:20;;;;;;;15.93;10.38;;;;;;;4.48;67.40;99439.53;4946543;28;20030;-95
2023/02/23 06:15:45;;;;;;;24.85;10.20;;;;;;;4.64;68.05;99457.56;4946029;28;20114;-94
2023/02/23 06:18:11;;;;;;;16.55;9.23;;;;;;;4.78;67.14;99462.72;4945004;28;20054;-95
2023/02/23 06:20:37;;;;;;;20.13;10.55;;;;;;;4.70;67.18;99444.38;4948068;28;20026;-94
2023/02/23 06:23:03;;;;;;;23.30;11.23;;;;;;;4.77;67.58;99445.91;4946051;28;20038;-92
2023/02/23 06:25:28;;;;;;;22.33;11.10;;;;;;;5.20;66.47;99486.69;4946611;28;20041;-94
2023/02/23 06:27:54;;;;;;;24.95;13.60;;;;;;;5.25;66.33;99473.50;4951914;28;20038;-94
2023/02/23 06:30:19;;;;;;;22.65;11.07;;;;;;;5.34;65.94;99464.09;4945409;28;20035;-93
2023/02/23 06:32:45;;;;;;;26.15;10.77;;;;;;;5.62;64.77;99476.75;4943212;28;20050;-91
2023/02/23 06:35:14;;;;;;;31.15;11.88;;;;;;;5.63;64.44;99465.00;4944167;28;20031;-94
2023/02/23 06:37:39;;;;;;;24.65;11.18;;;;;;;5.86;63.99;99482.88;4937523;29;20470;-92
2023/02/23 06:40:06;;;;;;;22.55;10.82;;;;;;;5.57;64.43;99473.16;4946470;29;20043;-95
2023/02/23 06:42:37;;;;;;;22.85;10.88;;;;;;;5.57;65.63;99484.63;4934875;29;20035;-95
2023/02/23 06:45:23;;;;;;;;;;;;;;;;;;;;;
2023/02/23 06:47:49;;;;;;;42.92;21.02;;;;;;;5.47;65.91;99489.75;4899262;29;20108;-94
2023/02/23 06:50:22;;;;;;;23.75;12.15;;;;;;;5.64;65.98;99482.66;4934941;29;20039;-94
2023/02/23 06:52:51;;;;;;;22.58;11.88;;;;;;;5.96;65.22;99501.00;4977189;23;20146;-93
2023/02/23 06:55:35;;;;;;;23.58;12.48;;;;;;;6.28;64.75;99482.66;4906396;29;20122;-92
2023/02/23 06:58:00;;;;;;;31.00;17.20;;;;;;;6.70;64.03;99478.91;4911373;29;20100;-93
2023/02/23 07:00:32;;;;;;;26.38;12.13;;;;;;;6.88;62.98;99472.53;4891784;29;20087;-94
2023/02/23 07:04:09;;;;;;;23.02;12.13;;;;;;;7.36;61.98;99483.75;4893712;29;20031;-95
2023/02/23 07:06:47;;;;;;;21.70;10.50;;;;;;;7.53;61.47;99471.13;4890649;29;20045;-93
2023/02/23 07:14:44;;;;;;;24.25;11.25;;;;;;;8.12;59.77;99484.00;5372578;23;20052;-94
2023/02/23 07:17:17;;;;;;;22.55;9.32;;;;;;;8.38;58.86;99490.47;4932357;29;20039;-95
2023/02/23 07:19:51;;;;;;;18.75;10.38;;;;;;;8.63;58.52;99491.84;4897745;29;20062;-96
2023/02/23 07:22:21;;;;;;;17.67;7.47;;;;;;;8.74;57.89;99482.84;4918021;29;20028;-94
2023/02/23 07:25:09;;;;;;;26.45;7.97;;;;;;;8.87;57.70;99495.84;4899652;29;20011;-95
2023/02/23 07:27:43;;;;;;;21.17;8.88;;;;;;;8.95;57.69;99494.59;4918579;29;20035;-95
2023/02/23 07:30:23;;;;;;;13.80;7.63;;;;;;;9.02;57.02;99476.38;4907195;29;20046;-95
2023/02/23 07:35:47;;;;;;;15.25;8.05;;;;;;;9.12;57.20;99499.84;5434302;23;20404;-94
2023/02/23 07:38:19;;;;;;;;;;;;;;;9.33;56.39;99497.31;5154605;23;20065;-95
2023/02/23 08:04:53;;;;;;;17.75;9.82;;;;;;;10.42;54.13;99498.50;4981246;28;20055;-93
2023/02/23 08:14:28;;;;;;;;;;;;;;;;;;;;;
2023/02/23 08:17:01;;;;;;;19.05;10.10;;;;;;;11.01;52.95;99501.84;4964923;28;20038;-95
2023/02/23 08:19:28;;;;;;;26.90;10.02;;;;;;;10.97;52.70;99492.69;4951443;28;20101;-94
2023/02/23 08:21:57;;;;;;;22.13;8.38;;;;;;;10.98;52.86;99505.06;4951887;28;20046;-94
2023/02/23 08:24:24;;;;;;;17.83;9.88;;;;;;;11.02;53.28;99506.16;4950735;28;20026;-95
2023/02/23 08:27:11;;;;;;;15.05;7.72;;;;;;;11.03;53.06;99507.78;4935565;28;20433;-95
2023/02/23 08:35:08;;;;;;;12.88;7.95;;;;;;;11.39;52.30;99495.09;5232082;23;20059;-94
2023/02/23 08:38:02;;;;;;;20.10;8.85;;;;;;;11.60;51.90;99493.22;4914397;29;20027;-95
2023/02/23 08:40:34;;;;;;;14.13;7.05;;;;;;;11.74;51.38;99479.97;4924665;29;20038;-95
2023/02/23 08:43:00;;;;;;;16.48;8.88;;;;;;;11.97;51.34;99497.47;4947274;29;20458;-95
2023/02/23 08:45:28;;;;;;;9.73;6.68;;;;;;;11.99;50.21;99473.72;4913088;29;20051;-93
2023/02/23 08:48:02;;;;;;;15.20;9.10;;;;;;;12.12;49.32;99470.44;4915496;29;20066;-95
2023/02/23 08:50:28;;;;;;;15.13;7.38;;;;;;;12.39;49.23;99495.41;4911799;29;20047;-95
2023/02/23 08:53:05;;;;;;;17.25;8.30;;;;;;;12.41;49.35;99475.19;4898879;29;20027;-94
2023/02/23 09:02:44;;;;;;;10.93;6.97;;;;;;;12.47;49.36;99474.06;4871433;29;20073;-95
2023/02/23 09:05:23;;;;;;;10.45;7.00;;;;;;;12.66;48.82;99490.44;4859100;29;20071;-95
2023/02/23 09:08:01;;;;;;;11.32;6.47;;;;;;;12.86;48.57;99492.19;4877290;29;20437;-95
2023/02/23 09:10:32;;;;;;;8.82;5.90;;;;;;;12.92;48.31;99482.16;4861281;29;20048;-95
2023/02/23 09:13:24;;;;;;;9.43;6.38;;;;;;;12.94;48.09;99471.88;4876261;29;20029;-95
2023/02/23 09:15:59;;;;;;;13.60;6.15;;;;;;;13.06;47.92;99479.63;4868993;29;20041;-95
2023/02/23 09:18:35;;;;;;;10.07;6.15;;;;;;;13.02;48.02;99483.97;4862751;29;20492;-96
2023/02/23 09:21:17;;;;;;;11.00;5.75;;;;;;;13.18;47.59;99492.75;4863072;29;20060;-96
2023/02/23 09:24:05;;;;;;;9.65;5.88;;;;;;;13.17;47.52;99467.63;4865884;29;20052;-95
2023/02/23 09:26:32;;;;;;;11.43;7.00;;;;;;;13.32;47.82;99472.94;4858507;29;20032;-93
2023/02/23 09:29:06;;;;;;;11.13;6.43;;;;;;;13.46;47.40;99486.59;4873573;29;20049;-93
2023/02/23 09:45:47;;;;;;;8.70;5.55;;;;;;;13.42;47.34;99488.25;4907524;29;20119;-96
2023/02/23 09:49:16;;;;;;;;;;;;;;;;;;;;;
2023/02/23 09:55:37;;;;;;;9.75;6.28;;;;;;;13.50;47.36;99466.00;4864854;29;20033;-94
2023/02/23 09:58:32;;;;;;;10.45;5.95;;;;;;;13.59;46.49;99457.28;4873790;29;20093;-96
2023/02/23 10:04:47;;;;;;;;;;;;;;;;;;;;;
2023/02/23 10:07:51;;;;;;;7.88;4.68;;;;;;;13.90;45.92;99476.69;4938478;29;20490;-96
2023/02/23 10:22:35;;;;;;;5.15;3.60;;;;;;;13.86;45.67;99457.53;4969349;28;20079;-94
2023/02/23 10:25:27;;;;;;;6.93;4.05;;;;;;;13.95;45.06;99455.78;4920130;29;20035;-95
2023/02/23 10:27:56;;;;;;;6.72;3.67;;;;;;;14.06;44.97;99464.59;4930220;29;20035;-95
2023/02/23 10:30:24;;;;;;;5.53;3.88;;;;;;;14.11;44.84;99452.88;4917367;29;20051;-96
2023/02/23 10:33:15;;;;;;;7.82;5.03;;;;;;;14.27;44.51;99459.72;4920035;29;20038;-96
2023/02/23 10:36:23;;;;;;;7.10;3.95;;;;;;;14.21;44.17;99435.72;4956848;29;20027;-95
2023/02/23 10:39:29;;;;;;;4.53;3.25;;;;;;;14.27;43.76;99435.34;4958811;29;20067;-95
2023/02/23 10:42:43;;;;;;;;;;;;;;;;;;;;;
2023/02/23 10:45:22;;;;;;;7.35;3.88;;;;;;;14.25;44.01;99445.66;4960440;29;20058;-93
2023/02/23 10:48:04;;;;;;;9.90;4.03;;;;;;;14.21;43.81;99416.75;4943163;29;20039;-96
2023/02/23 10:51:40;;;;;;;7.40;3.85;;;;;;;14.07;43.64;99417.50;4940481;29;20055;-95
2023/02/23 10:54:53;;;;;;;;;;;;;;;;;;;;;
2023/02/23 11:04:18;;;;;;;5.60;3.25;;;;;;;14.20;43.74;99404.34;4853503;29;20053;-96
2023/02/23 11:06:47;;;;;;;6.20;3.88;;;;;;;14.44;43.64;99420.50;4865468;29;20032;-95
2023/02/23 11:16:34;;;;;;;6.88;2.72;;;;;;;14.63;43.77;99420.53;4872867;29;20052;-96
2023/02/23 11:19:04;;;;;;;6.25;3.30;;;;;;;14.50;43.97;99393.03;4889950;29;20028;-95
2023/02/23 11:21:34;;;;;;;9.85;4.53;;;;;;;14.67;43.80;99416.97;4874879;29;20046;-95
2023/02/23 11:24:25;;;;;;;7.82;3.97;;;;;;;14.74;43.35;99406.53;4874392;29;20037;-95
2023/02/23 11:26:53;;;;;;;8.05;3.38;;;;;;;14.65;43.44;99411.03;4887640;29;20645;-95
2023/02/23 11:29:49;;;;;;;;;;;;;;;;;;;;;
2023/02/23 11:32:31;;;;;;;6.40;3.88;;;;;;;14.66;43.56;99390.16;4901162;29;20080;-96
2023/02/23 11:35:22;;;;;;;6.03;3.67;;;;;;;14.71;43.42;99385.47;4880085;29;20032;-95
2023/02/23 11:37:51;;;;;;;7.03;3.70;;;;;;;14.84;43.27;99393.94;4912903;29;20075;-95
2023/02/23 11:40:32;;;;;;;11.18;3.63;;;;;;;14.89;43.23;99399.25;4946045;23;20055;-95
2023/02/23 11:51:51;;;;;;;16.27;8.65;;;;;;;14.94;42.71;99397.28;5728074;23;20047;-93
2023/02/23 11:55:05;;;;;;;5.38;3.42;;;;;;;15.07;42.63;99411.97;5331729;23;20209;-95
2023/02/23 11:58:09;;;;;;;7.25;4.03;;;;;;;15.02;42.54;99384.94;4983917;28;20047;-94
2023/02/23 12:00:46;;;;;;;4.72;2.92;;;;;;;15.19;42.12;99406.09;4908165;29;20048;-95
2023/02/23 12:03:21;;;;;;;3.85;2.70;;;;;;;15.18;41.79;99399.03;4915117;29;20074;-95
2023/02/23 12:06:06;;;;;;;;;;;;;;;;;;;;;
2023/02/23 12:08:41;;;;;;;5.30;2.83;;;;;;;15.28;41.80;99411.63;4933002;29;20095;-95
2023/02/23 12:13:41;;;;;;;6.07;2.92;;;;;;;15.46;41.59;99391.75;4969948;28;20058;-94
2023/02/23 12:16:37;;;;;;;6.10;2.80;;;;;;;15.54;41.44;99387.50;4914279;29;20490;-94
2023/02/23 12:19:22;;;;;;;7.25;3.25;;;;;;;15.65;41.89;99405.22;4922533;29;20031;-95
2023/02/23 12:22:28;;;;;;;4.72;3.15;;;;;;;15.53;41.93;99400.28;4946429;29;20386;-94
2023/02/23 12:25:22;;;;;;;8.75;3.70;;;;;;;15.57;41.73;99390.44;4942971;29;20054;-94
2023/02/23 12:28:06;;;;;;;5.05;3.55;;;;;;;15.61;41.78;99398.00;4929051;29;20032;-95
2023/02/23 12:31:01;;;;;;;5.25;3.25;;;;;;;15.60;41.40;99383.59;4942391;29;20079;-96
2023/02/23 12:34:00;;;;;;;6.22;3.28;;;;;;;15.58;41.78;99385.81;4929490;29;20039;-95
2023/02/23 12:36:34;;;;;;;5.22;3.10;;;;;;;15.52;41.57;99387.00;4893424;29;20036;-95
2023/02/23 12:39:09;;;;;;;6.38;3.67;;;;;;;15.61;41.37;99396.06;4898596;29;20042;-96
2023/02/23 12:41:41;;;;;;;6.32;3.00;;;;;;;15.72;41.45;99402.13;4930458;29;20401;-94
2023/02/23 12:44:19;;;;;;;4.63;3.10;;;;;;;15.65;41.34;99393.56;4930790;29;20028;-95
2023/02/23 12:46:52;;;;;;;6.82;3.92;;;;;;;15.39;42.08;99383.19;4950982;29;20026;-95
2023/02/23 13:11:19;;;;;;;7.53;4.35;;;;;;;15.64;41.83;99414.47;5792015;23;20081;-96
2023/02/23 13:14:10;;;;;;;4.88;3.47;;;;;;;15.57;42.10;99412.16;5060857;23;20055;-95
2023/02/23 13:17:19;;;;;;;7.68;4.07;;;;;;;15.43;42.30;99394.25;4904157;29;20062;-95
2023/02/23 13:19:55;;;;;;;6.97;4.18;;;;;;;15.36;42.47;99389.22;4911695;29;20059;-96
2023/02/23 13:22:47;;;;;;;6.93;3.53;;;;;;;15.56;42.42;99404.31;4900837;29;20034;-96
2023/02/23 13:25:24;;;;;;;5.80;3.95;;;;;;;15.55;42.37;99398.06;4929416;29;20056;-96
2023/02/23 13:27:54;;;;;;;8.30;5.18;;;;;;;15.50;42.29;99402.78;4912057;29;20067;-95
2023/02/23 13:30:31;;;;;;;8.75;5.43;;;;;;;15.57;42.33;99389.66;4893837;29;20070;-95
2023/02/23 13:33:24;;;;;;;9.90;4.70;;;;;;;15.73;42.50;99409.19;4905335;29;20063;-94
2023/02/23 13:36:19;;;;;;;6.35;4.35;;;;;;;15.91;42.11;99410.97;4919990;29;20028;-95
2023/02/23 13:38:57;;;;;;;;;;;;;;;;;;;;;
2023/02/23 13:47:22;;;;;;;7.22;4.30;;;;;;;16.07;41.32;99388.94;5743481;23;20489;-95
2023/02/23 13:50:48;;;;;;;9.63;4.93;;;;;;;16.10;41.77;99421.75;4919676;29;20039;-96
2023/02/23 13:53:43;;;;;;;7.90;4.53;;;;;;;16.15;41.70;99416.19;4925097;29;20043;-96
2023/02/23 13:59:44;;;;;;;6.07;4.60;;;;;;;16.09;41.75;99406.53;4937551;29;20106;-96
2023/02/23 14:02:35;;;;;;;8.50;4.35;;;;;;;16.02;42.04;99405.31;4922396;29;20048;-94
2023/02/23 14:05:24;;;;;;;8.55;4.70;;;;;;;16.14;42.08;99413.75;4948886;29;20106;-96
2023/02/23 14:07:54;;;;;;;9.73;4.72;;;;;;;15.91;42.22;99402.81;4938991;29;20043;-96
2023/02/23 14:11:02;;;;;;;12.00;5.15;;;;;;;15.95;42.20;99417.41;4927050;29;20018;-96
2023/02/23 14:22:59;;;;;;;;;;;;;;;;;;;;;
2023/02/23 15:07:56;;;;;;;9.10;4.85;;;;;;;14.81;45.17;99405.34;5024817;23;20046;-95
2023/02/23 15:31:22;;;;;;;6.70;3.88;;;;;;;14.13;46.62;99410.09;4965289;28;20074;-96
2023/02/23 15:33:53;;;;;;;7.70;3.72;;;;;;;14.09;46.56;99399.06;4933703;29;20027;-96
2023/02/23 15:36:33;;;;;;;8.20;4.00;;;;;;;14.06;46.47;99396.13;4935248;29;20462;-96
2023/02/23 15:39:03;;;;;;;6.57;4.13;;;;;;;13.92;46.76;99402.25;4936259;29;20031;-96
2023/02/23 15:41:48;;;;;;;8.02;3.80;;;;;;;13.90;46.96;99398.19;4933569;29;20038;-96
2023/02/23 15:44:37;;;;;;;6.88;4.13;;;;;;;13.84;47.10;99392.06;4942669;29;20024;-96
2023/02/23 15:47:33;;;;;;;10.20;5.28;;;;;;;14.01;47.06;99426.78;4955823;29;20042;-95
2023/02/23 15:50:48;;;;;;;11.35;5.78;;;;;;;13.93;47.41;99430.13;4938559;29;20039;-95
2023/02/23 15:53:35;;;;;;;11.30;5.70;;;;;;;13.72;47.78;99429.56;4930426;29;20091;-95
2023/02/23 15:56:33;;;;;;;9.80;4.60;;;;;;;13.78;47.58;99443.81;4918026;29;20047;-94
2023/02/23 15:59:53;;;;;;;8.63;5.32;;;;;;;13.69;47.92;99439.03;4922403;29;20028;-95
2023/02/23 16:02:38;;;;;;;8.00;4.85;;;;;;;13.55;47.90;99430.00;4927097;29;20108;-96
2023/02/23 16:05:38;;;;;;;12.00;6.40;;;;;;;13.68;48.30;99455.56;4905760;29;20044;-94
2023/02/23 16:08:21;;;;;;;27.58;9.55;;;;;;;13.53;48.50;99440.31;5117255;23;20164;-96
2023/02/23 16:10:49;;;;;;;24.00;12.10;;;;;;;13.53;48.88;99451.94;4976935;28;20044;-95
2023/02/23 16:13:18;;;;;;;18.02;10.10;;;;;;;13.44;48.69;99433.88;4958675;28;20026;-94
2023/02/23 16:15:53;;;;;;;17.30;9.23;;;;;;;13.52;49.10;99465.72;4998330;23;20066;-96
2023/02/23 16:18:34;;;;;;;21.42;10.25;;;;;;;13.31;49.43;99454.31;4929008;29;20032;-96
2023/02/23 16:21:05;;;;;;;15.52;9.18;;;;;;;13.28;49.68;99452.13;4899348;29;20033;-95
2023/02/23 16:23:40;;;;;;;29.17;14.53;;;;;;;13.14;50.07;99447.38;4880756;29;20042;-95
2023/02/23 16:26:40;;;;;;;25.83;12.73;;;;;;;13.10;50.04;99457.16;4884346;29;20503;-95
2023/02/23 16:29:27;;;;;;;20.48;9.90;;;;;;;13.13;50.08;99466.56;4885210;29;20032;-95
2023/02/23 16:31:57;;;;;;;22.20;9.25;;;;;;;13.04;50.34;99471.78;4893028;29;20032;-96
2023/02/23 16:34:34;;;;;;;14.45;5.97;;;;;;;13.05;50.47;99478.81;4856104;29;20033;-96
2023/02/23 16:37:14;;;;;;;12.95;6.40;;;;;;;12.85;51.37;99493.28;4855462;29;20040;-95
2023/02/23 16:39:42;;;;;;;8.80;5.82;;;;;;;12.91;50.99;99497.56;4872091;29;20036;-95
2023/02/23 16:42:16;;;;;;;20.20;10.30;;;;;;;12.89;51.45;99501.63;4857048;29;20045;-95
2023/02/23 16:44:43;;;;;;;33.53;17.35;;;;;;;12.52;52.08;99502.94;4858817;29;20028;-96
2023/02/23 16:47:28;;;;;;;9.82;5.50;;;;;;;12.64;51.75;99524.22;4860707;29;20041;-94
2023/02/23 16:50:16;;;;;;;10.93;4.50;;;;;;;12.45;52.29;99518.63;4859000;29;20566;-95
2023/02/23 16:53:28;;;;;;;7.40;4.45;;;;;;;12.30;52.32;99512.19;4888002;29;20032;-94
2023/02/23 16:56:00;;;;;;;11.25;4.65;;;;;;;12.20;52.77;99533.84;4904121;29;20040;-96
2023/02/23 17:20:37;;;;;;;9.32;4.93;;;;;;;11.55;54.61;99566.03;4940057;29;20055;-95
2023/02/23 17:23:06;;;;;;;14.30;5.68;;;;;;;11.19;55.16;99552.53;4907205;29;20072;-93
2023/02/23 17:25:34;;;;;;;19.38;5.18;;;;;;;11.19;55.21;99549.03;4908407;29;20031;-93
2023/02/23 17:28:00;;;;;;;16.10;5.18;;;;;;;11.23;55.42;99572.47;4907159;29;20028;-95
2023/02/23 17:30:26;;;;;;;11.35;4.85;;;;;;;11.15;55.59;99564.94;4907922;29;20035;-95
2023/02/23 17:32:53;;;;;;;7.65;5.10;;;;;;;11.00;55.69;99560.31;4909937;29;20027;-94
2023/02/23 17:43:51;;;;;;;7.85;5.03;;;;;;;10.72;56.93;99580.44;5613792;23;20066;-93
2023/02/23 17:46:17;;;;;;;13.15;5.50;;;;;;;10.67;57.20;99594.69;4910598;29;20035;-92
2023/02/23 17:48:45;;;;;;;10.65;5.88;;;;;;;10.64;57.45;99589.03;4910728;29;20023;-95
2023/02/23 17:51:11;;;;;;;9.55;5.50;;;;;;;10.46;57.54;99568.78;4911436;29;20027;-95
2023/02/23 17:53:38;;;;;;;11.85;6.15;;;;;;;10.51;57.35;99579.56;4927334;29;20035;-95
2023/02/23 17:56:04;;;;;;;10.52;5.88;;;;;;;10.50;57.64;99589.53;4910585;29;20050;-95
2023/02/23 17:58:30;;;;;;;7.18;5.05;;;;;;;10.36;57.44;99580.28;4909657;29;20023;-95
2023/02/23 18:00:57;;;;;;;7.72;5.30;;;;;;;10.32;57.67;99585.38;4911272;29;20023;-96
2023/02/23 18:03:23;;;;;;;9.48;6.28;;;;;;;10.35;58.08;99578.66;4910579;29;20034;-95
2023/02/23 18:05:49;;;;;;;7.50;4.95;;;;;;;10.40;57.72;99597.53;4911013;29;20027;-95